createdAt,value
2022-11-25T00:01:32.995Z,1.60
2022-11-25T00:04:03.192Z,1.60
2022-11-25T00:06:33.999Z,1.60
2022-11-25T00:09:05.809Z,1.60
2022-11-25T00:11:37.085Z,1.60
2022-11-25T00:14:07.631Z,1.60
2022-11-25T00:16:35.865Z,1.60
2022-11-25T00:19:05.426Z,1.50
2022-11-25T00:21:35.549Z,1.50
2022-11-25T00:24:06.710Z,1.50
2022-11-25T00:26:36.940Z,1.50
2022-11-25T00:29:08.750Z,1.50
2022-11-25T00:31:40.366Z,1.60
2022-11-25T00:34:14.242Z,1.60
2022-11-25T00:36:42.440Z,1.60
2022-11-25T00:39:14.077Z,1.60
2022-11-25T00:42:00.404Z,1.50
2022-11-25T00:44:39.019Z,1.50
2022-11-25T00:47:11.815Z,1.50
2022-11-25T00:49:44.155Z,1.40
2022-11-25T00:52:16.476Z,1.40
2022-11-25T00:54:45.732Z,1.40
2022-11-25T00:57:13.920Z,1.40
2022-11-25T00:59:42.457Z,1.30
2022-11-25T01:02:12.562Z,1.30
2022-11-25T01:04:42.225Z,1.30
2022-11-25T01:07:10.465Z,1.40
2022-11-25T01:09:39.160Z,1.40
2022-11-25T01:12:09.116Z,1.40
2022-11-25T01:14:37.846Z,1.40
2022-11-25T01:17:06.269Z,1.40
2022-11-25T01:19:38.287Z,1.40
2022-11-25T01:22:08.099Z,1.30
2022-11-25T01:24:36.465Z,1.30
2022-11-25T01:27:04.941Z,1.40
2022-11-25T01:29:33.170Z,1.40
2022-11-25T01:32:01.357Z,1.40
2022-11-25T01:34:31.965Z,1.40
2022-11-25T01:37:00.173Z,1.40
2022-11-25T01:39:32.811Z,1.50
2022-11-25T01:42:02.212Z,1.50
2022-11-25T01:44:32.329Z,1.50
2022-11-25T01:47:07.049Z,1.50
2022-11-25T01:49:42.227Z,1.50
2022-11-25T01:52:16.738Z,1.50
2022-11-25T01:54:53.955Z,1.60
2022-11-25T01:57:28.350Z,1.60
2022-11-25T02:00:01.434Z,1.60
2022-11-25T02:02:32.664Z,1.60
2022-11-25T02:05:01.882Z,1.50
2022-11-25T02:07:36.613Z,1.50
2022-11-25T02:10:12.629Z,1.60
2022-11-25T02:12:47.242Z,1.60
2022-11-25T02:15:17.071Z,1.60
2022-11-25T02:17:45.964Z,1.60
2022-11-25T02:20:16.626Z,1.60
2022-11-25T02:22:54.913Z,1.60
2022-11-25T02:25:27.965Z,1.60
2022-11-25T02:28:02.464Z,1.60
2022-11-25T02:30:30.618Z,1.60
2022-11-25T02:33:00.731Z,1.60
2022-11-25T02:35:33.600Z,1.60
2022-11-25T02:38:09.655Z,1.60
2022-11-25T02:40:46.199Z,1.70
2022-11-25T02:43:15.189Z,1.60
2022-11-25T02:46:00.324Z,1.60
2022-11-25T02:49:00.966Z,1.60
2022-11-25T02:51:23.730Z,1.60
2022-11-25T02:53:53.242Z,1.60
2022-11-25T02:56:27.761Z,1.60
2022-11-25T02:58:56.091Z,1.60
2022-11-25T03:01:27.430Z,1.60
2022-11-25T03:03:55.678Z,1.60
2022-11-25T03:06:24.149Z,1.50
2022-11-25T03:08:54.960Z,1.50
2022-11-25T03:11:46.243Z,1.50
2022-11-25T03:14:15.683Z,1.50
2022-11-25T03:16:44.802Z,1.40
2022-11-25T03:19:13.182Z,1.50
2022-11-25T03:21:41.309Z,1.50
2022-11-25T03:24:09.597Z,1.50
2022-11-25T03:26:39.102Z,1.60
2022-11-25T03:29:07.635Z,1.60
2022-11-25T03:31:36.577Z,1.60
2022-11-25T03:34:04.857Z,1.60
2022-11-25T03:36:33.152Z,1.70
2022-11-25T03:39:01.710Z,1.60
2022-11-25T03:41:29.929Z,1.60
2022-11-25T03:43:59.640Z,1.60
2022-11-25T03:46:27.796Z,1.60
2022-11-25T03:48:56.742Z,1.60
2022-11-25T03:51:25.703Z,1.60
2022-11-25T03:53:54.523Z,1.60
2022-11-25T03:56:24.405Z,1.70
2022-11-25T03:58:52.781Z,1.60
2022-11-25T04:01:22.995Z,1.70
2022-11-25T04:03:52.196Z,1.70
2022-11-25T04:06:22.057Z,1.70
2022-11-25T04:08:54.187Z,1.70
2022-11-25T04:11:43.013Z,1.70
2022-11-25T04:14:10.959Z,1.70
2022-11-25T04:16:40.561Z,1.70
2022-11-25T04:19:09.018Z,1.60
2022-11-25T04:21:37.246Z,1.60
2022-11-25T04:24:05.878Z,1.60
2022-11-25T04:26:35.410Z,1.60
2022-11-25T04:29:03.746Z,1.60
2022-11-25T04:31:31.973Z,1.60
2022-11-25T04:34:01.453Z,1.60
2022-11-25T04:36:29.831Z,1.60
2022-11-25T04:38:58.321Z,1.60
2022-11-25T04:41:26.643Z,1.60
2022-11-25T04:43:54.750Z,1.60
2022-11-25T04:46:31.680Z,1.50
2022-11-25T04:49:01.178Z,1.60
2022-11-25T04:51:29.389Z,1.50
2022-11-25T04:54:02.311Z,1.50
2022-11-25T04:56:32.378Z,1.50
2022-11-25T04:59:18.282Z,1.50
2022-11-25T05:01:48.537Z,1.60
2022-11-25T05:04:31.361Z,1.60
2022-11-25T05:06:59.734Z,1.60
2022-11-25T05:09:28.510Z,1.70
2022-11-25T05:12:05.703Z,1.70
2022-11-25T05:14:35.708Z,1.70
2022-11-25T05:17:04.288Z,1.70
2022-11-25T05:19:35.927Z,1.80
2022-11-25T05:22:05.126Z,1.70
2022-11-25T05:24:34.124Z,1.70
2022-11-25T05:27:03.810Z,1.60
2022-11-25T05:29:32.061Z,1.60
2022-11-25T05:32:00.325Z,1.60
2022-11-25T05:34:28.672Z,1.60
2022-11-25T05:36:59.790Z,1.50
2022-11-25T05:39:28.423Z,1.50
2022-11-25T05:42:30.766Z,1.50
2022-11-25T05:45:02.309Z,1.50
2022-11-25T05:47:31.869Z,1.50
2022-11-25T05:50:01.062Z,1.50
2022-11-25T05:52:31.777Z,1.50
2022-11-25T05:55:02.175Z,1.50
2022-11-25T05:57:30.542Z,1.50
2022-11-25T06:00:09.742Z,1.50
2022-11-25T06:02:45.303Z,1.50
2022-11-25T06:05:16.265Z,1.50
2022-11-25T06:07:46.157Z,1.50
2022-11-25T06:10:15.263Z,1.40
2022-11-25T06:12:44.693Z,1.40
2022-11-25T06:15:14.348Z,1.40
2022-11-25T06:17:42.873Z,1.30
2022-11-25T06:20:17.431Z,1.30
2022-11-25T06:22:48.436Z,1.30
2022-11-25T06:25:23.531Z,1.30
2022-11-25T06:30:44.213Z,1.30
2022-11-25T06:33:25.636Z,1.30
2022-11-25T06:35:54.444Z,1.30
2022-11-25T06:38:24.226Z,1.30
2022-11-25T06:40:54.124Z,1.30
2022-11-25T06:43:24.586Z,1.30
2022-11-25T06:45:52.897Z,1.30
2022-11-25T06:48:21.138Z,1.20
2022-11-25T06:50:57.903Z,1.20
2022-11-25T06:53:28.266Z,1.20
2022-11-25T06:56:09.885Z,1.20
2022-11-25T06:58:38.680Z,1.20
2022-11-25T07:01:09.517Z,1.20
2022-11-25T07:03:37.790Z,1.30
2022-11-25T07:06:06.966Z,1.30
2022-11-25T07:08:39.064Z,1.40
2022-11-25T07:11:09.276Z,1.40
2022-11-25T07:13:37.739Z,1.50
2022-11-25T07:16:08.091Z,1.50
2022-11-25T07:18:38.687Z,1.50
2022-11-25T07:21:08.834Z,1.60
2022-11-25T07:23:39.436Z,1.70
2022-11-25T07:26:14.522Z,1.80
2022-11-25T07:28:43.623Z,1.90
2022-11-25T07:31:27.532Z,1.90
2022-11-25T07:33:59.179Z,1.90
2022-11-25T07:36:28.535Z,2.00
2022-11-25T07:39:00.086Z,2.00
2022-11-25T07:41:29.954Z,2.10
2022-11-25T07:44:00.904Z,2.20
2022-11-25T07:46:39.592Z,2.20
2022-11-25T07:49:10.431Z,2.30
2022-11-25T07:51:40.374Z,2.40
2022-11-25T07:54:12.259Z,2.70
2022-11-25T07:56:43.209Z,3.60
2022-11-25T07:59:14.427Z,4.70
2022-11-25T08:01:43.553Z,5.20
2022-11-25T08:04:19.711Z,5.40
2022-11-25T08:06:50.740Z,5.50
2022-11-25T08:09:23.999Z,5.60
2022-11-25T08:11:52.835Z,5.60
2022-11-25T08:14:21.626Z,5.70
2022-11-25T08:16:49.885Z,5.80
2022-11-25T08:19:19.615Z,5.70
2022-11-25T08:21:48.684Z,5.70
2022-11-25T08:24:21.480Z,5.60
2022-11-25T08:26:51.075Z,5.60
2022-11-25T08:29:20.692Z,5.60
2022-11-25T08:31:48.978Z,5.60
2022-11-25T08:34:21.082Z,5.60
2022-11-25T08:36:51.141Z,5.50
2022-11-25T08:39:51.130Z,5.50
2022-11-25T08:42:10.640Z,5.50
2022-11-25T08:44:38.836Z,5.50
2022-11-25T08:47:07.063Z,5.50
2022-11-25T08:49:40.979Z,5.60
2022-11-25T08:52:10.919Z,5.50
2022-11-25T08:54:40.448Z,5.60
2022-11-25T08:57:08.650Z,5.50
2022-11-25T08:59:37.242Z,5.40
2022-11-25T09:02:06.334Z,5.40
2022-11-25T09:04:34.912Z,5.30
2022-11-25T09:07:05.267Z,5.30
2022-11-25T09:09:33.800Z,5.20
2022-11-25T09:12:03.459Z,5.20
2022-11-25T09:14:31.692Z,5.20
2022-11-25T09:17:02.097Z,5.30
2022-11-25T09:19:33.013Z,5.40
2022-11-25T09:22:01.251Z,5.50
2022-11-25T09:24:29.528Z,5.60
2022-11-25T09:26:58.264Z,5.80
2022-11-25T09:29:30.065Z,6.10
2022-11-25T09:31:58.449Z,6.30
2022-11-25T09:34:26.736Z,6.50
2022-11-25T09:36:54.916Z,6.70
2022-11-25T09:39:28.089Z,7.00
2022-11-25T09:42:31.206Z,7.20
2022-11-25T09:45:48.165Z,7.30
2022-11-25T09:48:38.306Z,7.50
2022-11-25T09:51:15.033Z,7.60
2022-11-25T09:53:48.376Z,7.60
2022-11-25T09:56:30.825Z,7.70
2022-11-25T09:59:04.532Z,7.70
2022-11-25T10:01:47.817Z,7.70
2022-11-25T10:04:24.042Z,7.70
2022-11-25T10:06:57.055Z,7.70
2022-11-25T10:09:28.239Z,7.70
2022-11-25T10:12:01.292Z,7.70
2022-11-25T10:14:41.107Z,7.70
2022-11-25T10:17:19.703Z,7.70
2022-11-25T10:19:58.410Z,7.80
2022-11-25T10:22:29.580Z,7.90
2022-11-25T10:25:01.870Z,8.00
2022-11-25T10:27:39.554Z,8.20
2022-11-25T10:30:19.285Z,8.30
2022-11-25T10:32:57.879Z,8.40
2022-11-25T10:35:34.586Z,8.60
2022-11-25T10:38:05.360Z,8.60
2022-11-25T10:40:33.840Z,8.60
2022-11-25T10:43:06.626Z,8.70
2022-11-25T10:45:46.282Z,8.70
2022-11-25T10:48:32.500Z,8.70
2022-11-25T10:51:27.815Z,8.70
2022-11-25T10:54:16.509Z,8.70
2022-11-25T10:56:52.400Z,8.70
2022-11-25T10:59:27.869Z,8.70
2022-11-25T11:02:16.493Z,8.70
2022-11-25T11:05:00.195Z,8.80
2022-11-25T11:07:33.072Z,8.80
2022-11-25T11:10:22.544Z,8.80
2022-11-25T11:13:00.266Z,8.80
2022-11-25T11:15:31.267Z,8.80
2022-11-25T11:18:01.741Z,8.80
2022-11-25T11:20:32.793Z,8.70
2022-11-25T11:23:09.059Z,8.70
2022-11-25T11:25:40.875Z,8.70
2022-11-25T11:28:30.797Z,8.70
2022-11-25T11:31:02.333Z,8.60
2022-11-25T11:33:37.468Z,8.70
2022-11-25T11:36:25.256Z,8.70
2022-11-25T11:38:57.580Z,8.70
2022-11-25T11:41:38.202Z,8.60
2022-11-25T11:44:22.104Z,8.70
2022-11-25T11:47:14.915Z,8.70
2022-11-25T11:50:09.859Z,8.60
2022-11-25T11:52:58.434Z,8.60
2022-11-25T11:56:18.943Z,8.50
2022-11-25T11:58:57.403Z,8.40
2022-11-25T12:01:51.820Z,8.40
2022-11-25T12:04:27.169Z,8.40
2022-11-25T12:07:06.277Z,8.40
2022-11-25T12:09:43.209Z,8.40
2022-11-25T12:12:19.211Z,8.40
2022-11-25T12:14:51.774Z,8.50
2022-11-25T12:17:24.545Z,8.50
2022-11-25T12:19:59.939Z,8.60
2022-11-25T12:22:35.231Z,8.60
2022-11-25T12:25:11.779Z,8.60
2022-11-25T12:27:43.770Z,8.60
2022-11-25T12:30:17.242Z,8.60
2022-11-25T12:33:00.070Z,8.60
2022-11-25T12:35:42.476Z,8.60
2022-11-25T12:38:24.680Z,8.60
2022-11-25T12:41:07.287Z,8.60
2022-11-25T12:43:43.698Z,8.60
2022-11-25T12:46:24.816Z,8.60
2022-11-25T12:48:54.909Z,8.60
2022-11-25T12:51:44.632Z,8.60
2022-11-25T12:54:38.401Z,8.60
2022-11-25T12:58:01.107Z,8.60
2022-11-25T13:00:43.854Z,8.60
2022-11-25T13:03:55.270Z,8.50
2022-11-25T13:07:03.883Z,8.50
2022-11-25T13:10:08.556Z,8.50
2022-11-25T13:12:52.643Z,8.40
2022-11-25T13:15:29.002Z,8.40
2022-11-25T13:18:01.402Z,8.30
2022-11-25T13:20:51.878Z,8.30
2022-11-25T13:23:30.394Z,8.20
2022-11-25T13:26:50.160Z,8.20
2022-11-25T13:30:02.833Z,8.20
2022-11-25T13:32:40.590Z,8.30
2022-11-25T13:35:48.161Z,8.30
2022-11-25T13:38:39.705Z,8.20
2022-11-25T13:41:26.099Z,8.30
2022-11-25T13:44:01.986Z,8.30
2022-11-25T13:46:40.700Z,8.40
2022-11-25T13:49:29.672Z,8.40
2022-11-25T13:52:03.360Z,8.50
2022-11-25T13:54:41.305Z,8.50
2022-11-25T13:57:29.558Z,8.50
2022-11-25T14:00:01.145Z,8.50
2022-11-25T14:02:45.203Z,8.50
2022-11-25T14:05:55.092Z,8.60
2022-11-25T14:08:37.572Z,8.70
2022-11-25T14:11:49.198Z,8.80
2022-11-25T14:14:57.050Z,8.90
2022-11-25T14:17:58.366Z,8.90
2022-11-25T14:20:40.416Z,8.90
2022-11-25T14:23:42.859Z,8.90
2022-11-25T14:26:41.813Z,8.90
2022-11-25T14:29:09.533Z,8.90
2022-11-25T14:31:43.157Z,8.90
2022-11-25T14:34:18.922Z,8.90
2022-11-25T14:36:52.296Z,8.90
2022-11-25T14:39:28.919Z,8.90
2022-11-25T14:42:04.158Z,8.90
2022-11-25T14:44:40.692Z,8.90
2022-11-25T14:47:08.836Z,8.90
2022-11-25T14:50:11.917Z,8.90
2022-11-25T14:52:38.621Z,8.90
2022-11-25T14:55:08.979Z,8.90
2022-11-25T14:57:41.674Z,8.80
2022-11-25T15:00:15.319Z,8.80
2022-11-25T15:02:55.299Z,8.80
2022-11-25T15:05:27.720Z,8.80
2022-11-25T15:08:02.034Z,8.80
2022-11-25T15:10:37.857Z,8.80
2022-11-25T15:13:15.551Z,8.90
2022-11-25T15:15:47.087Z,8.80
2022-11-25T15:18:21.504Z,8.80
2022-11-25T15:20:57.139Z,8.70
2022-11-25T15:23:31.797Z,8.70
2022-11-25T15:26:01.110Z,8.70
2022-11-25T15:28:35.350Z,8.60
2022-11-25T15:31:09.661Z,8.60
2022-11-25T15:33:38.538Z,8.60
2022-11-25T15:36:08.703Z,8.60
2022-11-25T15:38:44.714Z,8.60
2022-11-25T15:41:21.686Z,8.60
2022-11-25T15:43:53.129Z,8.60
2022-11-25T15:46:22.268Z,8.60
2022-11-25T15:48:52.592Z,8.60
2022-11-25T15:51:36.818Z,8.60
2022-11-25T15:54:14.634Z,8.50
2022-11-25T15:56:48.996Z,8.50
2022-11-25T15:59:41.526Z,8.50
2022-11-25T16:02:34.074Z,8.40
2022-11-25T16:05:29.780Z,8.40
2022-11-25T16:08:26.276Z,8.40
2022-11-25T16:10:57.822Z,8.40
2022-11-25T16:13:37.246Z,8.30
2022-11-25T16:16:28.393Z,8.30
2022-11-25T16:19:18.996Z,8.30
2022-11-25T16:22:01.222Z,8.20
2022-11-25T16:24:42.051Z,8.20
2022-11-25T16:27:21.343Z,8.20
2022-11-25T16:29:54.040Z,8.10
2022-11-25T16:32:24.828Z,8.10
2022-11-25T16:34:56.037Z,8.00
2022-11-25T16:37:24.573Z,8.00
2022-11-25T16:39:54.036Z,7.90
2022-11-25T16:42:22.979Z,7.90
2022-11-25T16:44:52.976Z,8.00
2022-11-25T16:47:23.947Z,8.00
2022-11-25T16:49:52.179Z,8.00
2022-11-25T16:52:20.327Z,8.00
2022-11-25T16:54:48.539Z,8.00
2022-11-25T16:57:21.892Z,8.00
2022-11-25T16:59:55.941Z,8.00
2022-11-25T17:02:26.849Z,8.00
2022-11-25T17:04:55.374Z,7.90
2022-11-25T17:07:32.697Z,7.90
2022-11-25T17:10:01.237Z,7.90
2022-11-25T17:12:33.756Z,7.90
2022-11-25T17:15:04.532Z,7.80
2022-11-25T17:17:33.463Z,7.80
2022-11-25T17:20:01.657Z,7.80
2022-11-25T17:22:33.509Z,7.80
2022-11-25T17:25:06.787Z,7.70
2022-11-25T17:27:36.343Z,7.70
2022-11-25T17:30:08.474Z,7.70
2022-11-25T17:32:37.517Z,7.60
2022-11-25T17:35:17.325Z,7.70
2022-11-25T17:37:45.643Z,7.70
2022-11-25T17:40:14.873Z,7.70
2022-11-25T17:42:45.373Z,7.70
2022-11-25T17:45:15.953Z,7.70
2022-11-25T17:47:44.419Z,7.70
2022-11-25T17:50:19.223Z,7.70
2022-11-25T17:52:47.440Z,7.60
2022-11-25T17:55:19.497Z,7.60
2022-11-25T17:57:49.701Z,7.50
2022-11-25T18:00:21.682Z,7.50
2022-11-25T18:02:50.961Z,7.60
2022-11-25T18:05:21.332Z,7.60
2022-11-25T18:07:50.401Z,7.60
2022-11-25T18:10:21.748Z,7.60
2022-11-25T18:12:55.430Z,7.60
2022-11-25T18:15:26.776Z,7.60
2022-11-25T18:18:01.154Z,7.60
2022-11-25T18:20:32.350Z,7.60
2022-11-25T18:23:01.428Z,7.60
2022-11-25T18:25:33.079Z,7.50
2022-11-25T18:28:05.000Z,7.50
2022-11-25T18:30:35.511Z,7.60
2022-11-25T18:33:06.182Z,7.50
2022-11-25T18:35:36.654Z,7.60
2022-11-25T18:38:05.906Z,7.60
2022-11-25T18:40:35.478Z,7.60
2022-11-25T18:43:06.014Z,7.60
2022-11-25T18:45:36.992Z,7.60
2022-11-25T18:48:16.094Z,7.60
2022-11-25T18:50:45.400Z,7.60
2022-11-25T18:53:13.809Z,7.60
2022-11-25T18:55:42.640Z,7.60
2022-11-25T18:58:19.669Z,7.60
2022-11-25T19:00:50.282Z,7.60
2022-11-25T19:03:21.232Z,7.60
2022-11-25T19:05:50.099Z,7.60
2022-11-25T19:08:19.454Z,7.60
2022-11-25T19:10:49.565Z,7.50
2022-11-25T19:13:22.887Z,7.50
2022-11-25T19:15:51.174Z,7.50
2022-11-25T19:18:25.673Z,7.50
2022-11-25T19:20:54.462Z,7.40
2022-11-25T19:23:26.209Z,7.40
2022-11-25T19:25:56.626Z,7.40
2022-11-25T19:28:26.677Z,7.40
2022-11-25T19:31:00.391Z,7.40
2022-11-25T19:33:33.887Z,7.40
2022-11-25T19:36:02.293Z,7.40
2022-11-25T19:38:31.073Z,7.30
2022-11-25T19:40:59.868Z,7.30
2022-11-25T19:43:29.360Z,7.40
2022-11-25T19:45:58.874Z,7.40
2022-11-25T19:48:29.386Z,7.40
2022-11-25T19:51:02.061Z,7.30
2022-11-25T19:53:33.788Z,7.30
2022-11-25T19:56:04.415Z,7.20
2022-11-25T19:58:34.521Z,7.20
2022-11-25T20:01:05.846Z,7.20
2022-11-25T20:03:34.451Z,7.10
2022-11-25T20:06:02.621Z,7.10
2022-11-25T20:08:30.853Z,7.10
2022-11-25T20:10:59.401Z,7.00
2022-11-25T20:13:27.963Z,7.00
2022-11-25T20:15:59.739Z,7.00
2022-11-25T20:18:28.731Z,7.00
2022-11-25T20:21:03.931Z,7.00
2022-11-25T20:23:43.417Z,6.90
2022-11-25T20:26:18.487Z,6.90
2022-11-25T20:29:18.867Z,6.80
2022-11-25T20:31:49.472Z,6.70
2022-11-25T20:34:17.671Z,6.60
2022-11-25T20:36:46.159Z,6.60
2022-11-25T20:39:20.130Z,6.50
2022-11-25T20:41:51.245Z,6.40
2022-11-25T20:44:20.193Z,6.40
2022-11-25T20:46:49.714Z,6.30
2022-11-25T20:49:25.515Z,6.30
2022-11-25T20:51:53.977Z,6.20
2022-11-25T20:54:23.985Z,6.10
2022-11-25T20:56:52.137Z,6.00
2022-11-25T20:59:23.179Z,5.90
2022-11-25T21:01:54.578Z,5.80
2022-11-25T21:04:23.132Z,5.80
2022-11-25T21:06:51.253Z,5.70
2022-11-25T21:09:23.347Z,5.70
2022-11-25T21:11:52.020Z,5.70
2022-11-25T21:14:21.220Z,5.60
2022-11-25T21:16:49.972Z,5.60
2022-11-25T21:19:19.842Z,5.60
2022-11-25T21:21:50.796Z,5.50
2022-11-25T21:24:29.525Z,5.50
2022-11-25T21:26:59.302Z,5.40
2022-11-25T21:29:28.950Z,5.30
2022-11-25T21:31:57.208Z,5.30
2022-11-25T21:34:26.760Z,5.20
2022-11-25T21:36:55.802Z,5.20
2022-11-25T21:39:32.570Z,5.10
2022-11-25T21:42:04.641Z,5.10
2022-11-25T21:44:36.431Z,5.20
2022-11-25T21:47:14.348Z,5.20
2022-11-25T21:49:44.116Z,5.30
2022-11-25T21:52:12.628Z,5.30
2022-11-25T21:54:41.026Z,5.30
2022-11-25T21:57:16.986Z,5.30
2022-11-25T21:59:46.798Z,5.30
2022-11-25T22:02:19.457Z,5.30
2022-11-25T22:04:49.060Z,5.40
2022-11-25T22:07:17.657Z,5.30
2022-11-25T22:09:46.126Z,5.20
2022-11-25T22:12:28.458Z,5.20
2022-11-25T22:14:57.735Z,5.10
2022-11-25T22:17:26.638Z,5.00
2022-11-25T22:19:56.213Z,5.00
2022-11-25T22:22:25.242Z,5.00
2022-11-25T22:24:53.449Z,5.00
2022-11-25T22:27:24.718Z,5.00
2022-11-25T22:29:53.558Z,5.00
2022-11-25T22:32:21.814Z,5.00
2022-11-25T22:34:49.889Z,5.00
2022-11-25T22:37:22.828Z,5.10
2022-11-25T22:39:51.261Z,5.10
2022-11-25T22:42:28.226Z,5.10
2022-11-25T22:44:58.764Z,5.20
2022-11-25T22:47:33.431Z,5.30
2022-11-25T22:50:18.875Z,5.30
2022-11-25T22:52:48.388Z,5.30
2022-11-25T22:55:20.959Z,5.40
2022-11-25T22:57:50.372Z,5.40
2022-11-25T23:00:23.006Z,5.40
2022-11-25T23:02:52.837Z,5.40
2022-11-25T23:05:32.132Z,5.40
2022-11-25T23:08:03.262Z,5.40
2022-11-25T23:10:32.779Z,5.40
2022-11-25T23:13:00.916Z,5.50
2022-11-25T23:15:29.181Z,5.50
2022-11-25T23:17:59.741Z,5.60
2022-11-25T23:20:31.515Z,5.60
2022-11-25T23:23:04.034Z,5.60
2022-11-25T23:25:32.249Z,5.60
2022-11-25T23:28:00.418Z,5.70
2022-11-25T23:30:29.102Z,5.70
2022-11-25T23:32:57.715Z,5.70
2022-11-25T23:35:33.109Z,5.70
2022-11-25T23:38:03.365Z,5.80
2022-11-25T23:40:31.493Z,5.80
2022-11-25T23:42:59.630Z,5.80
2022-11-25T23:45:28.442Z,5.90
2022-11-25T23:47:57.867Z,5.90
2022-11-25T23:50:30.419Z,5.90
2022-11-25T23:53:04.747Z,5.90
2022-11-25T23:55:37.082Z,5.90
2022-11-25T23:58:16.014Z,5.90
